ADDS METAR Data INFO
IDs: Format: Raw Decoded Include TAF

Data at: 0516 UTC 19 Jan 2018

KGON 190456Z AUTO 31011KT 10SM CLR M04/M11 A3000 RMK AO2 SLP157 T10441106 400111078